Time;durP1;ratioP1;P1;durP2;ratioP2;P2;SDS_P1;SDS_P2;PMS_P1;PMS_P2;Temp;Humidity;BMP_temperature;BMP_pressure;BME280_temperature;BME280_humidity;BME280_pressure;Samples;Min_cycle;Max_cycle;Signal;HPM_P1;HPM_P2
2022/03/26 00:00:45;;;;;;;18.73;11.30;;;20.20;58.20;;;;;;5002760;28;20050;-71
2022/03/26 00:03:14;;;;;;;20.48;11.35;;;20.20;58.20;;;;;;5019302;28;20123;-70
2022/03/26 00:05:41;;;;;;;17.38;10.23;;;20.30;58.20;;;;;;5012835;28;20046;-72
2022/03/26 00:08:07;;;;;;;20.98;11.18;;;20.30;58.10;;;;;;5003212;28;20117;-70
2022/03/26 00:10:34;;;;;;;18.52;10.00;;;20.30;58.20;;;;;;4999353;28;20034;-71
2022/03/26 00:13:00;;;;;;;17.60;10.30;;;20.20;58.10;;;;;;4998577;28;20035;-70
2022/03/26 00:15:26;;;;;;;18.90;10.15;;;20.30;58.30;;;;;;5004476;28;20066;-71
2022/03/26 00:17:52;;;;;;;16.60;11.23;;;20.20;58.20;;;;;;4998434;28;20046;-71
2022/03/26 00:20:18;;;;;;;21.20;11.50;;;20.10;58.30;;;;;;5014318;28;20050;-69
2022/03/26 00:22:46;;;;;;;21.92;11.57;;;20.00;58.30;;;;;;4999574;28;20208;-70
2022/03/26 00:25:17;;;;;;;22.58;12.75;;;20.10;58.50;;;;;;4999329;28;20062;-71
2022/03/26 00:27:43;;;;;;;22.10;11.90;;;20.10;58.60;;;;;;4998858;28;20111;-70
2022/03/26 00:30:12;;;;;;;24.50;13.05;;;20.10;58.70;;;;;;4999388;28;20039;-70
2022/03/26 00:32:39;;;;;;;19.55;12.90;;;20.00;58.60;;;;;;5011988;28;20053;-70
2022/03/26 00:35:09;;;;;;;27.20;13.15;;;20.00;58.70;;;;;;4998997;28;20062;-73
2022/03/26 00:37:37;;;;;;;25.23;12.10;;;20.00;58.70;;;;;;5009968;28;20097;-69
2022/03/26 00:40:04;;;;;;;24.25;12.30;;;20.00;58.80;;;;;;5018682;28;20073;-70
2022/03/26 00:42:31;;;;;;;20.95;11.27;;;20.10;58.70;;;;;;5012768;28;20047;-71
2022/03/26 00:44:58;;;;;;;22.48;11.82;;;20.10;58.60;;;;;;4999043;28;20031;-73
2022/03/26 00:47:24;;;;;;;22.63;13.18;;;20.10;58.40;;;;;;5015590;28;20039;-71
2022/03/26 00:49:51;;;;;;;25.00;11.68;;;20.00;57.90;;;;;;5002744;28;20057;-72
2022/03/26 00:52:18;;;;;;;22.15;12.15;;;20.10;57.70;;;;;;5030257;28;20098;-71
2022/03/26 00:54:44;;;;;;;26.35;12.73;;;20.00;57.30;;;;;;4999035;28;20046;-71
2022/03/26 00:57:10;;;;;;;25.45;12.95;;;20.20;57.40;;;;;;4998326;28;20042;-72
2022/03/26 00:59:37;;;;;;;29.02;13.38;;;20.10;57.20;;;;;;4997624;28;20133;-71
2022/03/26 01:02:04;;;;;;;26.40;12.85;;;20.10;56.90;;;;;;5011841;28;20045;-71
2022/03/26 01:04:30;;;;;;;21.38;13.02;;;20.10;56.50;;;;;;5016576;28;20038;-72
2022/03/26 01:06:56;;;;;;;23.60;11.98;;;20.10;56.40;;;;;;4995507;28;20066;-71
2022/03/26 01:09:22;;;;;;;18.90;11.52;;;20.00;56.20;;;;;;4978655;28;20102;-71
2022/03/26 01:11:50;;;;;;;20.88;12.10;;;20.00;56.00;;;;;;4982084;28;20061;-75
2022/03/26 01:14:16;;;;;;;22.38;12.00;;;20.00;55.90;;;;;;4999306;28;20114;-71
2022/03/26 01:16:42;;;;;;;24.67;12.57;;;19.90;55.80;;;;;;5008893;28;20042;-72
2022/03/26 01:19:08;;;;;;;22.75;12.32;;;19.90;55.80;;;;;;5017954;28;20423;-71
2022/03/26 01:21:35;;;;;;;25.13;12.50;;;19.90;55.60;;;;;;5006641;28;20102;-71
2022/03/26 01:24:01;;;;;;;18.55;11.40;;;19.90;55.50;;;;;;4997943;28;20077;-71
2022/03/26 01:26:27;;;;;;;18.35;12.30;;;19.90;55.40;;;;;;4997483;28;20039;-72
2022/03/26 01:28:53;;;;;;;22.00;12.98;;;19.80;55.30;;;;;;4997766;28;20058;-70
2022/03/26 01:31:22;;;;;;;19.83;11.70;;;19.80;55.20;;;;;;5005808;28;20038;-71
2022/03/26 01:33:49;;;;;;;21.33;11.65;;;19.80;55.00;;;;;;4999842;28;20042;-72
2022/03/26 01:36:15;;;;;;;16.77;10.40;;;19.80;54.80;;;;;;4996416;28;20042;-72
2022/03/26 01:38:42;;;;;;;18.13;11.45;;;19.80;54.60;;;;;;4998002;28;20046;-72
2022/03/26 01:41:08;;;;;;;21.60;11.73;;;19.80;54.30;;;;;;4997786;28;20043;-71
2022/03/26 01:43:35;;;;;;;14.43;9.50;;;19.90;54.20;;;;;;4995787;28;20042;-72
2022/03/26 01:46:01;;;;;;;17.55;10.98;;;19.70;54.10;;;;;;5003190;28;20075;-72
2022/03/26 01:48:28;;;;;;;21.40;12.07;;;19.90;54.20;;;;;;5017546;28;20034;-71
2022/03/26 01:50:54;;;;;;;15.95;10.63;;;19.70;53.90;;;;;;5010631;28;20041;-71
2022/03/26 01:53:21;;;;;;;18.20;11.63;;;19.80;53.70;;;;;;5017397;28;20042;-71
2022/03/26 01:55:49;;;;;;;19.83;11.25;;;19.80;53.60;;;;;;5017326;28;20069;-72
2022/03/26 01:58:15;;;;;;;16.83;10.75;;;19.90;53.50;;;;;;5009619;28;20122;-71
2022/03/26 02:00:41;;;;;;;22.45;11.07;;;19.80;53.20;;;;;;5030811;28;20065;-72
2022/03/26 02:03:08;;;;;;;19.30;10.23;;;19.90;53.10;;;;;;5012577;28;20081;-71
2022/03/26 02:05:34;;;;;;;17.13;9.88;;;19.90;53.00;;;;;;5013622;28;20050;-71
2022/03/26 02:08:03;;;;;;;18.40;11.02;;;19.80;52.70;;;;;;5009955;28;20045;-72
2022/03/26 02:10:29;;;;;;;17.52;11.75;;;19.80;52.60;;;;;;5016480;28;20111;-72
2022/03/26 02:12:55;;;;;;;20.08;11.48;;;19.80;52.50;;;;;;5009796;28;20070;-70
2022/03/26 02:15:22;;;;;;;20.98;11.57;;;19.80;52.50;;;;;;4980004;28;20054;-71
2022/03/26 02:17:48;;;;;;;19.35;10.70;;;19.70;52.50;;;;;;5013031;28;20053;-71
2022/03/26 02:20:15;;;;;;;20.15;12.43;;;19.80;52.50;;;;;;5016801;28;20046;-72
2022/03/26 02:22:41;;;;;;;18.45;10.60;;;19.70;52.60;;;;;;4997918;28;20035;-70
2022/03/26 02:25:09;;;;;;;16.65;10.80;;;19.70;52.60;;;;;;4997180;28;20055;-71
2022/03/26 02:27:36;;;;;;;16.50;10.45;;;19.60;52.60;;;;;;5000538;28;20036;-75
2022/03/26 02:30:03;;;;;;;18.45;10.18;;;19.70;52.70;;;;;;4997125;28;20050;-72
2022/03/26 02:32:29;;;;;;;15.18;10.27;;;19.60;52.50;;;;;;4995947;28;20106;-72
2022/03/26 02:34:56;;;;;;;15.63;10.32;;;19.50;52.50;;;;;;5029240;28;20046;-72
2022/03/26 02:37:23;;;;;;;18.63;9.48;;;19.50;52.50;;;;;;4996905;28;20062;-71
2022/03/26 02:39:49;;;;;;;15.07;10.10;;;19.50;52.50;;;;;;4996542;28;20035;-71
2022/03/26 02:42:16;;;;;;;15.32;9.70;;;19.50;52.40;;;;;;4998660;28;20052;-70
2022/03/26 02:44:42;;;;;;;14.38;9.57;;;19.60;52.10;;;;;;5002200;28;20054;-71
2022/03/26 02:47:11;;;;;;;17.80;9.77;;;19.60;51.90;;;;;;5014835;28;20061;-70
2022/03/26 02:49:38;;;;;;;15.82;10.23;;;19.50;51.70;;;;;;5016731;28;20045;-72
2022/03/26 02:52:05;;;;;;;17.02;10.52;;;19.70;51.70;;;;;;5000269;28;20047;-71
2022/03/26 02:54:31;;;;;;;15.55;10.45;;;19.70;51.50;;;;;;4996311;28;20066;-72
2022/03/26 02:56:57;;;;;;;19.75;11.30;;;19.60;51.30;;;;;;4996385;28;20063;-73
2022/03/26 02:59:24;;;;;;;19.73;11.40;;;19.70;51.30;;;;;;4996085;28;20038;-71
2022/03/26 03:01:53;;;;;;;19.33;10.90;;;19.70;51.20;;;;;;4983586;28;20067;-71
2022/03/26 03:04:21;;;;;;;17.52;11.32;;;19.60;50.90;;;;;;4977713;28;20115;-73
2022/03/26 03:06:48;;;;;;;16.33;10.88;;;19.60;50.90;;;;;;4987379;28;20098;-71
2022/03/26 03:09:14;;;;;;;20.08;10.35;;;19.60;50.70;;;;;;4997023;28;20034;-71
2022/03/26 03:11:41;;;;;;;19.20;11.18;;;19.70;50.80;;;;;;5009671;28;20053;-72
2022/03/26 03:14:08;;;;;;;16.83;10.25;;;19.60;50.70;;;;;;5005590;28;20055;-72
2022/03/26 03:16:34;;;;;;;23.13;10.95;;;19.60;50.80;;;;;;5006693;28;20062;-71
2022/03/26 03:19:00;;;;;;;20.75;10.80;;;19.60;50.80;;;;;;5016519;28;20034;-71
2022/03/26 03:21:27;;;;;;;18.63;11.00;;;19.60;50.90;;;;;;5005925;28;20119;-72
2022/03/26 03:23:53;;;;;;;19.60;11.77;;;19.50;51.10;;;;;;5000677;28;20078;-71
2022/03/26 03:26:19;;;;;;;20.67;11.05;;;19.50;51.10;;;;;;5000574;28;20062;-71
2022/03/26 03:28:45;;;;;;;19.63;10.73;;;19.40;51.10;;;;;;4998997;28;20039;-72
2022/03/26 03:31:12;;;;;;;17.08;11.52;;;19.50;51.20;;;;;;5006208;28;20126;-73
2022/03/26 03:33:38;;;;;;;16.48;10.75;;;19.40;51.20;;;;;;5020085;28;20053;-71
2022/03/26 03:36:05;;;;;;;18.70;11.20;;;19.30;51.20;;;;;;5009609;28;20102;-71
2022/03/26 03:38:31;;;;;;;15.60;9.23;;;19.40;51.20;;;;;;4980740;28;20099;-71
2022/03/26 03:40:57;;;;;;;21.42;11.60;;;19.30;51.10;;;;;;4980934;28;20043;-72
2022/03/26 03:43:24;;;;;;;16.08;10.43;;;19.50;50.90;;;;;;4995760;28;20038;-71
2022/03/26 03:45:50;;;;;;;19.90;10.60;;;19.40;50.50;;;;;;4999944;28;20051;-72
2022/03/26 03:48:16;;;;;;;17.50;10.70;;;19.40;50.30;;;;;;5018064;28;20034;-71
2022/03/26 03:50:45;;;;;;;16.15;9.93;;;19.40;50.20;;;;;;5010103;28;20068;-72
2022/03/26 03:53:12;;;;;;;18.60;10.75;;;19.40;50.00;;;;;;5015041;28;20039;-71
2022/03/26 03:55:38;;;;;;;17.92;10.82;;;19.40;50.00;;;;;;5019433;28;20042;-72
2022/03/26 03:58:04;;;;;;;23.00;10.82;;;19.50;49.80;;;;;;5014988;28;20035;-71
2022/03/26 04:00:31;;;;;;;20.25;10.95;;;19.50;49.70;;;;;;5000515;28;20042;-71
2022/03/26 04:03:00;;;;;;;25.35;11.82;;;19.40;49.50;;;;;;5019487;28;20046;-71
2022/03/26 04:05:26;;;;;;;21.20;10.23;;;19.60;49.50;;;;;;5015950;28;20047;-73
2022/03/26 04:07:52;;;;;;;23.00;10.30;;;19.50;49.50;;;;;;4999262;28;20035;-72
2022/03/26 04:10:18;;;;;;;18.23;10.20;;;19.50;49.50;;;;;;4999965;28;20045;-72
2022/03/26 04:12:45;;;;;;;18.70;11.27;;;19.30;49.60;;;;;;5012962;28;20038;-71
2022/03/26 04:15:13;;;;;;;17.75;10.60;;;19.30;49.70;;;;;;5003417;28;20114;-71
2022/03/26 04:17:39;;;;;;;18.83;11.02;;;19.40;49.80;;;;;;5003676;28;20056;-72
2022/03/26 04:20:08;;;;;;;18.35;9.95;;;19.30;49.90;;;;;;5017384;28;20042;-72
2022/03/26 04:22:36;;;;;;;18.05;11.77;;;19.30;49.90;;;;;;4999891;28;20049;-71
2022/03/26 04:25:03;;;;;;;22.13;11.43;;;19.40;50.10;;;;;;4999289;28;20074;-72
2022/03/26 04:27:29;;;;;;;19.27;10.10;;;19.30;50.10;;;;;;4999391;28;20037;-71
2022/03/26 04:29:56;;;;;;;19.17;11.55;;;19.30;50.20;;;;;;4997694;28;20046;-71
2022/03/26 04:32:23;;;;;;;18.35;10.57;;;19.20;50.00;;;;;;4991127;28;20035;-72
2022/03/26 04:34:49;;;;;;;20.27;11.77;;;19.30;50.20;;;;;;5015703;28;20106;-71
2022/03/26 04:37:15;;;;;;;23.70;10.48;;;19.20;50.00;;;;;;5004242;28;20051;-71
2022/03/26 04:39:41;;;;;;;16.73;10.70;;;19.30;49.90;;;;;;4999131;28;20047;-71
2022/03/26 04:42:09;;;;;;;17.58;10.50;;;19.20;49.50;;;;;;4999103;28;20050;-70
2022/03/26 04:44:35;;;;;;;19.45;10.77;;;19.20;49.40;;;;;;4999244;28;20046;-71
2022/03/26 04:47:02;;;;;;;20.05;11.55;;;19.30;49.20;;;;;;4999002;28;20043;-72
2022/03/26 04:49:27;;;;;;;20.23;11.88;;;19.20;49.00;;;;;;4997869;28;20062;-71
2022/03/26 04:51:54;;;;;;;16.45;10.80;;;19.30;49.20;;;;;;5012760;28;20035;-71
2022/03/26 04:54:20;;;;;;;19.38;11.43;;;19.20;49.20;;;;;;4998115;28;20035;-71
2022/03/26 04:56:46;;;;;;;18.23;11.52;;;19.30;49.20;;;;;;4998547;28;20046;-72
2022/03/26 04:59:12;;;;;;;20.85;12.70;;;19.30;49.10;;;;;;5003545;28;20046;-71
2022/03/26 05:01:39;;;;;;;19.13;11.63;;;19.30;48.90;;;;;;5015110;28;20045;-71
2022/03/26 05:04:05;;;;;;;18.73;11.45;;;19.30;48.70;;;;;;5003246;28;20113;-72
2022/03/26 05:06:34;;;;;;;17.70;11.13;;;19.40;48.50;;;;;;4999865;28;20038;-71
2022/03/26 05:09:00;;;;;;;19.30;11.45;;;19.30;48.40;;;;;;5017522;28;20049;-72
2022/03/26 05:11:26;;;;;;;22.17;11.80;;;19.40;48.20;;;;;;5017160;28;20046;-71
2022/03/26 05:13:53;;;;;;;21.35;11.73;;;19.40;48.10;;;;;;5016810;28;20038;-71
2022/03/26 05:16:19;;;;;;;22.00;12.43;;;19.40;48.10;;;;;;5015750;28;20070;-71
2022/03/26 05:18:48;;;;;;;18.48;12.18;;;19.40;48.10;;;;;;5009417;28;20035;-71
2022/03/26 05:21:14;;;;;;;28.35;12.30;;;19.40;48.10;;;;;;5000567;28;20034;-71
2022/03/26 05:23:41;;;;;;;15.75;11.18;;;19.30;48.30;;;;;;5017487;28;20044;-71
2022/03/26 05:26:06;;;;;;;16.25;11.30;;;19.40;48.40;;;;;;5017288;28;20562;-72
2022/03/26 05:28:33;;;;;;;19.23;11.90;;;19.30;48.50;;;;;;4999893;28;20131;-72
2022/03/26 05:30:59;;;;;;;25.20;12.02;;;19.40;48.60;;;;;;4997374;28;20066;-71
2022/03/26 05:33:25;;;;;;;28.05;12.07;;;19.40;48.70;;;;;;4997183;28;20049;-72
2022/03/26 05:35:51;;;;;;;27.50;12.50;;;19.30;48.80;;;;;;5000787;28;20043;-71
2022/03/26 05:38:17;;;;;;;21.15;12.02;;;19.30;48.90;;;;;;5032832;28;20041;-72
2022/03/26 05:40:43;;;;;;;20.80;13.40;;;19.30;48.90;;;;;;5012333;28;20130;-72
2022/03/26 05:43:09;;;;;;;20.33;12.18;;;19.30;48.90;;;;;;4997232;28;20035;-72
2022/03/26 05:45:35;;;;;;;23.02;12.30;;;19.30;48.90;;;;;;4997422;28;20050;-72
2022/03/26 05:48:04;;;;;;;25.35;12.02;;;19.30;48.80;;;;;;4996914;28;20126;-71
2022/03/26 05:50:30;;;;;;;21.75;12.07;;;19.30;48.50;;;;;;4997590;28;20043;-71
2022/03/26 05:52:57;;;;;;;19.95;11.55;;;19.40;48.10;;;;;;5012782;28;20039;-74
2022/03/26 05:55:23;;;;;;;20.83;12.20;;;19.50;48.00;;;;;;4997472;28;20038;-71
2022/03/26 05:57:49;;;;;;;18.30;10.60;;;19.50;47.80;;;;;;4997728;28;20062;-71
2022/03/26 06:00:16;;;;;;;22.88;12.20;;;19.50;47.90;;;;;;4997128;28;20073;-71
2022/03/26 06:02:46;;;;;;;20.52;11.82;;;19.50;48.00;;;;;;4995163;28;20096;-74
2022/03/26 06:05:13;;;;;;;24.08;13.13;;;19.50;48.00;;;;;;4996534;28;20046;-73
2022/03/26 06:07:39;;;;;;;17.48;7.72;;;19.50;48.90;;;;;;4998329;28;20070;-69
2022/03/26 06:10:05;;;;;;;8.65;5.75;;;19.60;51.20;;;;;;4996669;28;20034;-69
2022/03/26 07:33:27;;;;;;;25.25;13.27;;;21.40;63.30;;;;;;5113507;28;20435;-68
2022/03/26 07:35:54;;;;;;;23.08;12.50;;;22.30;55.80;;;;;;5112270;28;20074;-71
2022/03/26 07:38:21;;;;;;;23.95;12.73;;;22.10;55.40;;;;;;5104354;28;20039;-69
2022/03/26 07:40:53;;;;;;;17.65;11.23;;;22.20;54.90;;;;;;5079423;28;20041;-71
2022/03/26 07:43:21;;;;;;;17.40;9.77;;;22.30;55.40;;;;;;5112867;28;20040;-71
2022/03/26 07:45:48;;;;;;;20.60;10.82;;;22.20;55.40;;;;;;5111938;28;20070;-70
2022/03/26 07:48:14;;;;;;;17.92;10.65;;;22.10;57.30;;;;;;5100744;28;20041;-70
2022/03/26 07:50:41;;;;;;;18.42;10.00;;;22.30;57.00;;;;;;5081272;28;20075;-68
2022/03/26 07:53:08;;;;;;;18.75;11.05;;;22.10;56.00;;;;;;5098951;28;20040;-70
2022/03/26 07:55:34;;;;;;;18.00;10.82;;;22.20;55.50;;;;;;5093233;28;20040;-70
2022/03/26 07:58:00;;;;;;;19.85;10.02;;;22.20;55.20;;;;;;5097708;28;20096;-71
2022/03/26 08:00:26;;;;;;;15.43;9.65;;;22.10;54.80;;;;;;5104004;28;20062;-71
2022/03/26 08:02:52;;;;;;;19.02;11.07;;;22.20;54.70;;;;;;5110094;28;20048;-72
2022/03/26 08:05:19;;;;;;;19.88;11.63;;;22.20;54.50;;;;;;5105867;28;20047;-71
2022/03/26 08:07:45;;;;;;;21.95;11.50;;;22.20;54.40;;;;;;5112020;28;20067;-71
2022/03/26 08:10:12;;;;;;;22.73;11.25;;;22.10;54.30;;;;;;5110384;28;20055;-70
2022/03/26 08:12:38;;;;;;;23.75;12.77;;;22.10;54.20;;;;;;5100050;28;20051;-72
2022/03/26 08:15:05;;;;;;;22.88;13.23;;;22.20;53.40;;;;;;5092109;28;20056;-72
2022/03/26 08:17:31;;;;;;;21.17;11.65;;;22.10;53.90;;;;;;5111052;28;20037;-71
2022/03/26 08:19:59;;;;;;;23.27;13.07;;;22.20;54.10;;;;;;5102259;28;20058;-71
2022/03/26 08:22:25;;;;;;;18.63;11.13;;;22.10;54.10;;;;;;5091512;28;20041;-71
2022/03/26 08:24:51;;;;;;;25.25;11.68;;;22.10;54.10;;;;;;5091001;28;20045;-72
2022/03/26 08:27:17;;;;;;;20.48;10.38;;;22.00;53.90;;;;;;5110490;28;20071;-71
2022/03/26 08:29:43;;;;;;;20.50;11.18;;;22.10;53.90;;;;;;5090648;28;20143;-71
2022/03/26 08:32:09;;;;;;;21.77;11.00;;;22.10;53.90;;;;;;5089584;28;20049;-70
2022/03/26 08:34:35;;;;;;;18.67;10.88;;;22.20;53.80;;;;;;5080156;28;20040;-71
2022/03/26 08:37:02;;;;;;;18.85;11.57;;;22.20;53.70;;;;;;5097655;28;20036;-71
2022/03/26 08:39:28;;;;;;;14.85;8.27;;;22.20;53.60;;;;;;5097125;28;20036;-72
2022/03/26 08:41:54;;;;;;;18.23;9.20;;;22.30;53.70;;;;;;5098089;28;20036;-71
2022/03/26 08:44:20;;;;;;;21.83;10.68;;;22.20;53.60;;;;;;5098300;28;20070;-71
2022/03/26 08:46:46;;;;;;;15.45;8.60;;;22.20;53.50;;;;;;5097161;28;20044;-71
2022/03/26 08:49:12;;;;;;;15.38;8.93;;;22.20;53.40;;;;;;5095310;28;20037;-71
2022/03/26 08:51:38;;;;;;;21.55;9.00;;;22.20;53.30;;;;;;5098333;28;20068;-70
2022/03/26 08:54:04;;;;;;;16.33;9.90;;;22.10;53.30;;;;;;5096753;28;20029;-71
2022/03/26 08:56:31;;;;;;;13.50;9.48;;;22.20;53.30;;;;;;5098119;28;20143;-71
2022/03/26 08:58:57;;;;;;;20.40;10.10;;;22.10;53.30;;;;;;5098258;28;20047;-71
2022/03/26 09:01:24;;;;;;;16.30;9.18;;;22.10;53.20;;;;;;5097920;28;20040;-72
2022/03/26 09:03:50;;;;;;;16.35;10.00;;;22.10;53.20;;;;;;5094897;28;20037;-71
2022/03/26 09:06:16;;;;;;;17.77;8.65;;;22.20;53.10;;;;;;5098035;28;20063;-71
2022/03/26 09:08:42;;;;;;;17.00;8.98;;;22.20;53.10;;;;;;5097995;28;20040;-70
2022/03/26 09:11:09;;;;;;;16.88;8.40;;;22.10;52.90;;;;;;5097730;28;20047;-70
2022/03/26 09:13:35;;;;;;;13.10;8.13;;;22.10;53.00;;;;;;5098021;28;20041;-70
2022/03/26 09:16:01;;;;;;;13.88;7.68;;;22.10;53.00;;;;;;5096786;28;20037;-70
2022/03/26 09:18:28;;;;;;;17.48;8.23;;;22.00;53.00;;;;;;5094783;28;20075;-71
2022/03/26 09:20:55;;;;;;;17.05;7.10;;;22.10;53.10;;;;;;5077553;28;20108;-70
2022/03/26 09:23:21;;;;;;;13.40;7.35;;;22.10;53.10;;;;;;5077648;28;20075;-71
2022/03/26 09:25:47;;;;;;;12.70;7.22;;;22.10;53.10;;;;;;5077729;28;20064;-70
2022/03/26 09:28:14;;;;;;;14.20;7.07;;;22.30;53.10;;;;;;5077653;28;20036;-71
2022/03/26 09:30:40;;;;;;;9.63;5.88;;;22.10;53.00;;;;;;5077344;28;20059;-70
2022/03/26 09:33:06;;;;;;;16.67;7.05;;;22.10;53.00;;;;;;5044480;28;20076;-71
2022/03/26 09:35:32;;;;;;;13.55;7.03;;;22.10;52.90;;;;;;5057405;28;20092;-71
2022/03/26 09:37:58;;;;;;;11.00;6.68;;;22.20;52.90;;;;;;5057405;28;20064;-70
2022/03/26 09:40:25;;;;;;;11.82;6.90;;;22.10;52.90;;;;;;5057256;28;20033;-70
2022/03/26 09:42:53;;;;;;;14.13;6.82;;;22.20;52.90;;;;;;5057203;28;20049;-70
2022/03/26 09:45:19;;;;;;;12.20;6.32;;;22.20;52.80;;;;;;5056391;28;20096;-70
2022/03/26 09:47:45;;;;;;;14.90;6.03;;;22.20;52.70;;;;;;5060050;28;20071;-71
2022/03/26 09:50:13;;;;;;;12.70;6.78;;;22.20;52.70;;;;;;5077037;28;20052;-70
2022/03/26 09:52:39;;;;;;;10.23;6.47;;;22.10;51.50;;;;;;5072302;28;20071;-71
2022/03/26 09:55:06;;;;;;;9.25;4.68;;;22.10;52.80;;;;;;5077155;28;20040;-70
2022/03/26 09:57:32;;;;;;;7.97;5.93;;;22.10;52.80;;;;;;5076980;28;20108;-72
2022/03/26 09:59:59;;;;;;;11.85;5.53;;;22.10;52.80;;;;;;5076824;28;20047;-71
2022/03/26 10:02:26;;;;;;;15.70;8.20;;;22.10;52.80;;;;;;5071686;28;20044;-71
2022/03/26 10:04:52;;;;;;;8.93;6.63;;;22.00;52.50;;;;;;5057285;28;20808;-70
2022/03/26 10:07:30;;;;;;;8.80;5.50;;;22.00;52.70;;;;;;5056908;28;20040;-70
2022/03/26 10:09:57;;;;;;;9.70;5.28;;;22.00;52.80;;;;;;5057276;28;20108;-70
2022/03/26 10:12:25;;;;;;;7.70;5.00;;;22.00;52.70;;;;;;5062198;28;20047;-70
2022/03/26 10:14:53;;;;;;;11.82;6.55;;;22.00;52.60;;;;;;5076779;28;20033;-70
2022/03/26 10:17:27;;;;;;;15.48;6.13;;;22.00;52.70;;;;;;5065172;28;20033;-70
2022/03/26 10:20:03;;;;;;;11.65;5.32;;;22.00;52.80;;;;;;5056465;28;20102;-70
2022/03/26 10:22:34;;;;;;;8.13;5.50;;;21.90;52.80;;;;;;5056529;28;20033;-70
2022/03/26 10:25:07;;;;;;;9.25;6.28;;;22.00;52.80;;;;;;5056550;28;20048;-70
2022/03/26 10:27:38;;;;;;;11.32;5.43;;;21.90;52.80;;;;;;5064470;28;20068;-70
2022/03/26 10:30:05;;;;;;;8.98;5.65;;;21.90;52.90;;;;;;5075785;28;20060;-70
2022/03/26 10:32:39;;;;;;;10.43;5.82;;;21.90;52.90;;;;;;5077690;28;20056;-70
2022/03/26 10:35:10;;;;;;;8.57;5.88;;;21.90;53.00;;;;;;5076211;28;20052;-71
2022/03/26 10:37:51;;;;;;;11.98;6.10;;;22.00;53.10;;;;;;5076403;28;20033;-70
2022/03/26 10:40:25;;;;;;;10.27;6.20;;;21.90;53.10;;;;;;5076098;28;20044;-70
2022/03/26 10:43:00;;;;;;;14.10;7.45;;;21.90;53.00;;;;;;5076231;28;20048;-71
2022/03/26 10:45:28;;;;;;;8.85;5.32;;;21.90;53.00;;;;;;5076377;28;20040;-70
2022/03/26 10:47:56;;;;;;;7.93;3.97;;;21.90;53.00;;;;;;5087744;28;20044;-71
2022/03/26 10:50:24;;;;;;;10.52;5.82;;;22.00;53.00;;;;;;5096175;28;20169;-70
2022/03/26 10:52:54;;;;;;;9.15;6.10;;;21.90;53.00;;;;;;5096310;28;20036;-70
2022/03/26 10:55:21;;;;;;;9.75;5.93;;;22.00;53.00;;;;;;5086712;28;20037;-70
2022/03/26 10:57:48;;;;;;;6.15;4.57;;;21.90;53.00;;;;;;5095825;28;20039;-70
2022/03/26 11:00:16;;;;;;;10.48;5.40;;;22.10;53.00;;;;;;5096085;28;20044;-70
2022/03/26 11:02:44;;;;;;;13.02;6.30;;;22.10;53.00;;;;;;5094593;28;20044;-70
2022/03/26 11:05:11;;;;;;;10.43;5.05;;;22.10;53.00;;;;;;5096137;28;20044;-71
2022/03/26 11:07:40;;;;;;;11.13;6.22;;;22.10;52.90;;;;;;5096147;28;20040;-70
2022/03/26 11:10:09;;;;;;;9.05;5.38;;;22.10;52.90;;;;;;5094789;28;20048;-70
2022/03/26 11:12:41;;;;;;;10.23;5.93;;;22.20;52.90;;;;;;5095903;28;20041;-70
2022/03/26 11:15:11;;;;;;;10.68;5.43;;;22.20;52.80;;;;;;5095902;28;20100;-70
2022/03/26 11:18:03;;;;;;;8.18;4.85;;;22.20;52.80;;;;;;5092841;28;20058;-70
2022/03/26 11:20:39;;;;;;;12.15;5.45;;;22.20;52.70;;;;;;5072041;28;20040;-70
2022/03/26 11:23:31;;;;;;;7.47;4.75;;;22.30;52.80;;;;;;5090927;28;20094;-70
2022/03/26 11:26:33;;;;;;;14.50;6.57;;;22.30;52.80;;;;;;5095329;28;20104;-70
2022/03/26 11:29:18;;;;;;;9.43;5.38;;;22.20;52.60;;;;;;5095791;28;20072;-71
2022/03/26 11:32:02;;;;;;;7.43;4.53;;;22.30;52.70;;;;;;5076700;28;20036;-70
2022/03/26 11:34:35;;;;;;;10.63;5.32;;;22.20;52.60;;;;;;5082425;28;20047;-71
2022/03/26 11:37:12;;;;;;;;;;;22.30;52.60;;;;;;5096253;28;20092;-70
2022/03/26 11:39:47;;;;;;;12.38;5.50;;;22.40;52.60;;;;;;5093440;28;19935;-70
2022/03/26 11:42:13;;;;;;;10.18;4.60;;;22.40;52.60;;;;;;5095787;28;20052;-71
2022/03/26 11:50:41;;;;;;;8.88;4.10;;;22.30;52.50;;;;;;5078395;28;20127;-70
2022/03/26 11:50:42;;;;;;;5.50;3.08;;;22.30;52.40;;;;;;5095536;28;20103;-70
2022/03/26 11:53:13;;;;;;;5.30;3.50;;;22.30;52.40;;;;;;5095762;28;20064;-70
2022/03/26 11:55:47;;;;;;;14.63;5.28;;;22.20;52.30;;;;;;5095712;28;20040;-70
2022/03/26 11:58:20;;;;;;;2.15;1.83;;;22.30;52.30;;;;;;5091346;28;20047;-69
2022/03/26 12:01:15;;;;;;;8.13;5.57;;;22.20;52.20;;;;;;5074798;28;20048;-69
2022/03/26 12:03:43;;;;;;;11.20;4.18;;;22.30;53.50;;;;;;5081186;28;20064;-67
2022/03/26 12:06:36;;;;;;;6.00;2.28;;;22.50;55.30;;;;;;5080063;28;20074;-69
2022/03/26 12:09:02;;;;;;;8.45;3.97;;;22.50;55.10;;;;;;5081442;28;20036;-69
2022/03/26 12:11:32;;;;;;;2.45;2.22;;;22.50;52.70;;;;;;5080007;28;20048;-68
2022/03/26 12:14:07;;;;;;;3.80;2.50;;;22.60;53.60;;;;;;5093944;28;20041;-69
2022/03/26 12:17:00;;;;;;;2.78;2.58;;;22.60;54.80;;;;;;5094772;28;20043;-69
2022/03/26 12:19:41;;;;;;;8.18;3.35;;;22.70;54.30;;;;;;5084400;28;20103;-70
2022/03/26 12:22:28;;;;;;;2.97;2.67;;;22.80;56.00;;;;;;5081665;28;20043;-69
2022/03/26 12:24:56;;;;;;;6.65;2.88;;;23.00;51.70;;;;;;5098976;28;20032;-69
2022/03/26 12:27:23;;;;;;;2.45;2.22;;;22.90;51.70;;;;;;5081495;28;20047;-68
2022/03/26 12:29:56;;;;;;;3.35;2.90;;;22.80;49.70;;;;;;5086992;28;20091;-71
2022/03/26 12:32:29;;;;;;;14.93;6.03;;;22.80;48.60;;;;;;5080116;28;20048;-70
2022/03/26 12:35:02;;;;;;;7.55;3.22;;;22.80;47.20;;;;;;5078709;28;20044;-69
2022/03/26 12:37:29;;;;;;;1.48;1.05;;;22.70;49.00;;;;;;5095989;28;20035;-70
2022/03/26 12:39:56;;;;;;;7.28;3.83;;;22.90;49.20;;;;;;5097904;28;20037;-69
2022/03/26 12:42:24;;;;;;;7.55;4.20;;;22.70;48.80;;;;;;5097849;28;20070;-70
2022/03/26 12:44:51;;;;;;;4.40;2.75;;;22.80;48.30;;;;;;5098626;28;20044;-69
2022/03/26 12:47:18;;;;;;;7.45;3.05;;;22.70;48.70;;;;;;5097026;28;20037;-70
2022/03/26 12:49:50;;;;;;;8.07;4.07;;;22.90;48.80;;;;;;5098455;28;20048;-70
2022/03/26 12:52:18;;;;;;;7.57;4.85;;;22.80;45.80;;;;;;5098405;28;20044;-70
2022/03/26 12:54:51;;;;;;;7.95;4.63;;;22.80;48.10;;;;;;5078112;28;20052;-69
2022/03/26 12:57:18;;;;;;;7.65;4.32;;;22.80;42.10;;;;;;5081653;28;20032;-69
2022/03/26 13:00:05;;;;;;;2.25;1.35;;;22.90;45.00;;;;;;5097588;28;20064;-70
2022/03/26 13:02:31;;;;;;;9.65;4.50;;;22.80;48.30;;;;;;5096643;28;20066;-69
2022/03/26 13:04:57;;;;;;;7.45;4.25;;;22.90;48.70;;;;;;5097628;28;20036;-69
2022/03/26 13:07:24;;;;;;;3.60;2.53;;;22.80;48.80;;;;;;5091982;28;20033;-70
2022/03/26 13:09:54;;;;;;;5.75;3.60;;;22.70;49.00;;;;;;5083724;28;20055;-70
2022/03/26 13:12:28;;;;;;;10.32;4.47;;;22.90;49.20;;;;;;5090627;28;20044;-70
2022/03/26 13:14:55;;;;;;;7.22;4.60;;;22.70;49.50;;;;;;5085645;28;20044;-70
2022/03/26 13:17:22;;;;;;;4.95;3.55;;;22.80;51.30;;;;;;5083779;28;20041;-70
2022/03/26 13:19:48;;;;;;;9.13;4.40;;;22.70;52.60;;;;;;5097876;28;20062;-71
2022/03/26 13:22:17;;;;;;;5.85;4.22;;;22.70;52.20;;;;;;5084779;28;20100;-69
2022/03/26 13:24:53;;;;;;;10.25;4.95;;;22.70;51.70;;;;;;5076195;28;20063;-70
2022/03/26 13:27:20;;;;;;;10.55;4.80;;;22.60;51.50;;;;;;5076635;28;20043;-69
2022/03/26 13:29:48;;;;;;;6.82;3.20;;;22.60;51.90;;;;;;5077229;28;20074;-69
2022/03/26 13:32:15;;;;;;;6.18;4.07;;;22.60;51.80;;;;;;5084459;28;20052;-70
2022/03/26 13:34:44;;;;;;;7.40;3.63;;;22.70;51.70;;;;;;5086555;28;20045;-70
2022/03/26 13:37:11;;;;;;;4.18;2.15;;;22.60;51.50;;;;;;5077913;28;20029;-69
2022/03/26 13:39:40;;;;;;;5.80;3.95;;;22.60;51.40;;;;;;5081113;28;20051;-70
2022/03/26 13:42:17;;;;;;;9.95;4.72;;;22.70;51.30;;;;;;5097386;28;20032;-70
2022/03/26 13:44:46;;;;;;;11.43;4.50;;;22.80;51.20;;;;;;5085302;28;20044;-70
2022/03/26 13:47:17;;;;;;;9.43;4.35;;;22.70;51.10;;;;;;5090416;28;20170;-70
2022/03/26 13:49:44;;;;;;;7.00;4.60;;;22.60;51.00;;;;;;5084296;28;20045;-70
2022/03/26 13:52:23;;;;;;;6.00;3.30;;;22.60;51.00;;;;;;5095914;28;20040;-69
2022/03/26 13:54:49;;;;;;;1.83;1.63;;;22.80;50.90;;;;;;5092481;28;20049;-70
2022/03/26 13:57:15;;;;;;;7.22;4.80;;;22.60;50.90;;;;;;5093328;28;20053;-70
2022/03/26 13:59:50;;;;;;;6.65;4.13;;;22.70;51.10;;;;;;5095467;28;20047;-70
2022/03/26 14:02:16;;;;;;;6.72;3.95;;;22.70;51.00;;;;;;5081761;28;20040;-70